sensor_id;sensor_type;location;lat;lon;timestamp;pressure;altitude;pressure_sealevel;temperature;humidity
77333;BME280;66408;51.326;12.070;2023-02-15T00:01:57;102227.53;;;0.46;73.69
77333;BME280;66408;51.326;12.070;2023-02-15T00:04:25;102230.56;;;0.43;74.24
77333;BME280;66408;51.326;12.070;2023-02-15T00:07:10;102219.69;;;0.45;75.48
77333;BME280;66408;51.326;12.070;2023-02-15T00:09:36;102232.28;;;0.51;77.47
77333;BME280;66408;51.326;12.070;2023-02-15T00:12:03;102219.72;;;0.51;78.82
77333;BME280;66408;51.326;12.070;2023-02-15T00:14:29;102226.38;;;0.55;79.65
77333;BME280;66408;51.326;12.070;2023-02-15T00:16:56;102220.38;;;0.53;80.11
77333;BME280;66408;51.326;12.070;2023-02-15T00:19:25;102225.34;;;0.56;80.23
77333;BME280;66408;51.326;12.070;2023-02-15T00:21:52;102226.19;;;0.57;79.44
77333;BME280;66408;51.326;12.070;2023-02-15T00:24:19;102226.00;;;0.58;79.68
77333;BME280;66408;51.326;12.070;2023-02-15T00:26:46;102219.34;;;0.54;79.68
77333;BME280;66408;51.326;12.070;2023-02-15T00:29:15;102214.28;;;0.59;79.56
77333;BME280;66408;51.326;12.070;2023-02-15T00:31:42;102210.34;;;0.62;80.34
77333;BME280;66408;51.326;12.070;2023-02-15T00:34:20;102211.63;;;0.66;80.40
77333;BME280;66408;51.326;12.070;2023-02-15T00:36:47;102195.13;;;0.62;80.59
77333;BME280;66408;51.326;12.070;2023-02-15T00:39:14;102202.53;;;0.60;80.81
77333;BME280;66408;51.326;12.070;2023-02-15T00:41:42;102207.25;;;0.58;80.40
77333;BME280;66408;51.326;12.070;2023-02-15T00:44:09;102213.25;;;0.60;79.94
77333;BME280;66408;51.326;12.070;2023-02-15T00:46:35;102206.28;;;0.66;80.58
77333;BME280;66408;51.326;12.070;2023-02-15T00:49:02;102208.31;;;0.64;80.03
77333;BME280;66408;51.326;12.070;2023-02-15T00:51:29;102219.22;;;0.62;79.44
77333;BME280;66408;51.326;12.070;2023-02-15T00:53:55;102201.75;;;0.66;79.74
77333;BME280;66408;51.326;12.070;2023-02-15T00:56:22;102202.78;;;0.65;79.21
77333;BME280;66408;51.326;12.070;2023-02-15T00:58:48;102202.22;;;0.70;79.30
77333;BME280;66408;51.326;12.070;2023-02-15T01:01:17;102201.38;;;0.69;79.57
77333;BME280;66408;51.326;12.070;2023-02-15T01:03:44;102206.78;;;0.76;79.66
77333;BME280;66408;51.326;12.070;2023-02-15T01:06:14;102197.81;;;0.84;79.74
77333;BME280;66408;51.326;12.070;2023-02-15T01:08:41;102200.69;;;0.82;79.60
77333;BME280;66408;51.326;12.070;2023-02-15T01:11:11;102204.00;;;0.84;79.76
77333;BME280;66408;51.326;12.070;2023-02-15T01:13:38;102197.34;;;0.80;80.09
77333;BME280;66408;51.326;12.070;2023-02-15T01:16:05;102198.94;;;0.75;80.15
77333;BME280;66408;51.326;12.070;2023-02-15T01:18:32;102214.50;;;0.64;80.78
77333;BME280;66408;51.326;12.070;2023-02-15T01:20:59;102202.53;;;0.60;80.47
77333;BME280;66408;51.326;12.070;2023-02-15T01:23:25;102205.41;;;0.59;81.19
77333;BME280;66408;51.326;12.070;2023-02-15T01:25:52;102199.22;;;0.58;81.35
77333;BME280;66408;51.326;12.070;2023-02-15T01:28:18;102188.53;;;0.58;81.57
77333;BME280;66408;51.326;12.070;2023-02-15T01:30:45;102188.53;;;0.58;81.19
77333;BME280;66408;51.326;12.070;2023-02-15T01:33:11;102178.75;;;0.51;80.71
77333;BME280;66408;51.326;12.070;2023-02-15T01:35:47;102181.25;;;0.52;80.32
77333;BME280;66408;51.326;12.070;2023-02-15T01:38:14;102178.38;;;0.54;79.98
77333;BME280;66408;51.326;12.070;2023-02-15T01:40:41;102171.50;;;0.45;79.66
77333;BME280;66408;51.326;12.070;2023-02-15T01:43:11;102170.69;;;0.44;79.12
77333;BME280;66408;51.326;12.070;2023-02-15T01:45:39;102166.34;;;0.43;78.91
77333;BME280;66408;51.326;12.070;2023-02-15T01:48:24;102164.50;;;0.44;78.92
77333;BME280;66408;51.326;12.070;2023-02-15T01:50:56;102158.06;;;0.38;78.38
77333;BME280;66408;51.326;12.070;2023-02-15T01:53:31;102159.09;;;0.37;78.31
77333;BME280;66408;51.326;12.070;2023-02-15T01:56:03;102157.03;;;0.39;77.92
77333;BME280;66408;51.326;12.070;2023-02-15T01:58:34;102156.22;;;0.39;77.74
77333;BME280;66408;51.326;12.070;2023-02-15T02:01:03;102145.72;;;0.37;77.78
77333;BME280;66408;51.326;12.070;2023-02-15T02:06:02;102157.31;;;0.23;77.60
77333;BME280;66408;51.326;12.070;2023-02-15T02:08:29;102152.78;;;0.23;78.02
77333;BME280;66408;51.326;12.070;2023-02-15T02:10:56;102161.69;;;0.30;77.50
77333;BME280;66408;51.326;12.070;2023-02-15T02:13:22;102152.84;;;0.30;77.43
77333;BME280;66408;51.326;12.070;2023-02-15T02:16:00;102153.03;;;0.28;77.12
77333;BME280;66408;51.326;12.070;2023-02-15T02:24:13;102159.19;;;0.08;77.76
77333;BME280;66408;51.326;12.070;2023-02-15T02:35:26;102144.22;;;0.13;77.78
77333;BME280;66408;51.326;12.070;2023-02-15T02:38:11;102142.84;;;0.17;77.87
77333;BME280;66408;51.326;12.070;2023-02-15T02:43:28;102143.22;;;0.14;78.12
77333;BME280;66408;51.326;12.070;2023-02-15T02:45:59;102138.06;;;0.13;78.24
77333;BME280;66408;51.326;12.070;2023-02-15T02:48:30;102140.72;;;0.13;78.40
77333;BME280;66408;51.326;12.070;2023-02-15T02:50:58;102135.13;;;0.08;78.19
77333;BME280;66408;51.326;12.070;2023-02-15T02:53:25;102136.34;;;0.05;78.30
77333;BME280;66408;51.326;12.070;2023-02-15T02:56:35;102139.56;;;0.00;78.45
77333;BME280;66408;51.326;12.070;2023-02-15T02:59:10;102136.84;;;-0.06;78.86
77333;BME280;66408;51.326;12.070;2023-02-15T03:01:46;102131.88;;;-0.09;78.52
77333;BME280;66408;51.326;12.070;2023-02-15T03:04:23;102125.50;;;-0.08;78.49
77333;BME280;66408;51.326;12.070;2023-02-15T03:07:06;102124.03;;;-0.11;78.95
77333;BME280;66408;51.326;12.070;2023-02-15T03:09:38;102133.53;;;-0.08;78.79
77333;BME280;66408;51.326;12.070;2023-02-15T03:12:11;102128.00;;;-0.07;79.01
77333;BME280;66408;51.326;12.070;2023-02-15T03:14:41;102123.00;;;-0.10;78.83
77333;BME280;66408;51.326;12.070;2023-02-15T03:17:11;102124.03;;;-0.11;78.94
77333;BME280;66408;51.326;12.070;2023-02-15T03:19:40;102113.91;;;-0.15;79.20
77333;BME280;66408;51.326;12.070;2023-02-15T03:22:12;102113.28;;;-0.17;78.96
77333;BME280;66408;51.326;12.070;2023-02-15T03:27:33;102103.91;;;-0.28;79.71
77333;BME280;66408;51.326;12.070;2023-02-15T03:30:04;102098.19;;;-0.25;79.59
77333;BME280;66408;51.326;12.070;2023-02-15T03:32:34;102104.34;;;-0.24;79.70
77333;BME280;66408;51.326;12.070;2023-02-15T03:35:04;102104.56;;;-0.26;79.15
77333;BME280;66408;51.326;12.070;2023-02-15T03:37:39;102092.94;;;-0.33;78.04
77333;BME280;66408;51.326;12.070;2023-02-15T03:42:58;102089.25;;;-0.32;78.70
77333;BME280;66408;51.326;12.070;2023-02-15T03:45:29;102085.19;;;-0.28;78.66
77333;BME280;66408;51.326;12.070;2023-02-15T03:47:58;102092.28;;;-0.35;78.43
77333;BME280;66408;51.326;12.070;2023-02-15T03:50:29;102091.75;;;-0.30;78.27
77333;BME280;66408;51.326;12.070;2023-02-15T03:53:18;102091.81;;;-0.24;78.76
77333;BME280;66408;51.326;12.070;2023-02-15T03:55:53;102098.38;;;-0.26;78.88
77333;BME280;66408;51.326;12.070;2023-02-15T03:58:20;102083.28;;;-0.34;78.42
77333;BME280;66408;51.326;12.070;2023-02-15T04:01:15;102101.41;;;-0.29;78.95
77333;BME280;66408;51.326;12.070;2023-02-15T04:04:11;102086.59;;;-0.32;79.17
77333;BME280;66408;51.326;12.070;2023-02-15T04:06:42;102100.72;;;-0.38;79.67
77333;BME280;66408;51.326;12.070;2023-02-15T04:09:09;102097.94;;;-0.45;79.61
77333;BME280;66408;51.326;12.070;2023-02-15T04:11:54;102098.13;;;-0.46;79.99
77333;BME280;66408;51.326;12.070;2023-02-15T04:14:20;102097.75;;;-0.43;79.83
77333;BME280;66408;51.326;12.070;2023-02-15T04:17:06;102094.25;;;-0.44;79.21
77333;BME280;66408;51.326;12.070;2023-02-15T04:19:33;102088.28;;;-0.60;79.54
77333;BME280;66408;51.326;12.070;2023-02-15T04:22:18;102094.59;;;-0.83;80.13
77333;BME280;66408;51.326;12.070;2023-02-15T04:25:04;102090.06;;;-0.97;81.28
77333;BME280;66408;51.326;12.070;2023-02-15T04:27:42;102089.91;;;-0.95;81.30
77333;BME280;66408;51.326;12.070;2023-02-15T04:30:10;102080.34;;;-0.90;81.36
77333;BME280;66408;51.326;12.070;2023-02-15T04:32:37;102083.00;;;-0.90;81.20
77333;BME280;66408;51.326;12.070;2023-02-15T04:35:05;102076.47;;;-0.87;81.25
77333;BME280;66408;51.326;12.070;2023-02-15T04:37:32;102085.75;;;-0.83;81.52
77333;BME280;66408;51.326;12.070;2023-02-15T04:39:59;102077.84;;;-0.77;81.60
77333;BME280;66408;51.326;12.070;2023-02-15T04:42:26;102079.94;;;-0.72;81.61
77333;BME280;66408;51.326;12.070;2023-02-15T04:44:53;102077.53;;;-0.67;81.77
77333;BME280;66408;51.326;12.070;2023-02-15T04:47:20;102071.38;;;-0.67;81.71
77333;BME280;66408;51.326;12.070;2023-02-15T04:49:46;102073.50;;;-0.78;82.51
77333;BME280;66408;51.326;12.070;2023-02-15T04:52:13;102063.00;;;-0.79;82.95
77333;BME280;66408;51.326;12.070;2023-02-15T04:54:40;102063.19;;;-0.81;82.85
77333;BME280;66408;51.326;12.070;2023-02-15T04:57:06;102051.78;;;-0.75;83.22
77333;BME280;66408;51.326;12.070;2023-02-15T04:59:33;102060.41;;;-0.73;83.74
77333;BME280;66408;51.326;12.070;2023-02-15T05:01:59;102061.53;;;-0.67;83.67
77333;BME280;66408;51.326;12.070;2023-02-15T05:04:26;102066.94;;;-0.60;83.56
77333;BME280;66408;51.326;12.070;2023-02-15T05:06:52;102063.88;;;-0.57;83.52
77333;BME280;66408;51.326;12.070;2023-02-15T05:09:19;102064.72;;;-0.57;84.12
77333;BME280;66408;51.326;12.070;2023-02-15T05:11:46;102056.53;;;-0.55;83.53
77333;BME280;66408;51.326;12.070;2023-02-15T05:14:12;102060.66;;;-0.53;83.25
77333;BME280;66408;51.326;12.070;2023-02-15T05:16:39;102054.50;;;-0.53;83.06
77333;BME280;66408;51.326;12.070;2023-02-15T05:19:06;102049.88;;;-0.59;83.60
77333;BME280;66408;51.326;12.070;2023-02-15T05:21:32;102053.97;;;-0.63;83.94
77333;BME280;66408;51.326;12.070;2023-02-15T05:23:59;102051.66;;;-0.66;84.09
77333;BME280;66408;51.326;12.070;2023-02-15T05:26:26;102050.06;;;-0.61;83.94
77333;BME280;66408;51.326;12.070;2023-02-15T05:29:10;102040.22;;;-0.60;84.03
77333;BME280;66408;51.326;12.070;2023-02-15T05:31:37;102042.88;;;-0.60;84.58
77333;BME280;66408;51.326;12.070;2023-02-15T05:34:04;102045.84;;;-0.55;84.25
77333;BME280;66408;51.326;12.070;2023-02-15T05:36:31;102049.16;;;-0.53;84.12
77333;BME280;66408;51.326;12.070;2023-02-15T05:38:57;102042.16;;;-0.54;84.27
77333;BME280;66408;51.326;12.070;2023-02-15T05:41:24;102045.00;;;-0.56;84.61
77333;BME280;66408;51.326;12.070;2023-02-15T05:43:51;102036.72;;;-0.61;84.60
77333;BME280;66408;51.326;12.070;2023-02-15T05:46:20;102040.88;;;-0.58;84.71
77333;BME280;66408;51.326;12.070;2023-02-15T05:48:47;102036.44;;;-0.51;83.99
77333;BME280;66408;51.326;12.070;2023-02-15T05:51:13;102033.00;;;-0.45;83.99
77333;BME280;66408;51.326;12.070;2023-02-15T05:53:42;102033.28;;;-0.40;83.57
77333;BME280;66408;51.326;12.070;2023-02-15T05:56:10;102031.97;;;-0.44;83.53
77333;BME280;66408;51.326;12.070;2023-02-15T05:58:39;102025.16;;;-0.47;83.45
77333;BME280;66408;51.326;12.070;2023-02-15T06:01:17;102026.28;;;-0.41;83.78
77333;BME280;66408;51.326;12.070;2023-02-15T06:03:45;102035.16;;;-0.34;83.61
77333;BME280;66408;51.326;12.070;2023-02-15T06:06:12;102033.69;;;-0.37;83.17
77333;BME280;66408;51.326;12.070;2023-02-15T06:08:39;102043.00;;;-0.32;83.30
77333;BME280;66408;51.326;12.070;2023-02-15T06:11:06;102032.13;;;-0.31;83.06
77333;BME280;66408;51.326;12.070;2023-02-15T06:13:33;102029.63;;;-0.32;82.96
77333;BME280;66408;51.326;12.070;2023-02-15T06:16:04;102037.47;;;-0.31;83.00
77333;BME280;66408;51.326;12.070;2023-02-15T06:18:31;102038.56;;;-0.25;83.14
77333;BME280;66408;51.326;12.070;2023-02-15T06:20:58;102038.13;;;-0.29;82.99
77333;BME280;66408;51.326;12.070;2023-02-15T06:23:24;102041.16;;;-0.32;83.26
77333;BME280;66408;51.326;12.070;2023-02-15T06:25:51;102035.53;;;-0.37;83.16
77333;BME280;66408;51.326;12.070;2023-02-15T06:28:17;102037.84;;;-0.34;83.36
77333;BME280;66408;51.326;12.070;2023-02-15T06:30:44;102040.88;;;-0.37;83.87
77333;BME280;66408;51.326;12.070;2023-02-15T06:33:10;102040.28;;;-0.39;84.11
77333;BME280;66408;51.326;12.070;2023-02-15T06:35:37;102039.44;;;-0.40;84.01
77333;BME280;66408;51.326;12.070;2023-02-15T06:38:03;102040.81;;;-0.44;84.29
77333;BME280;66408;51.326;12.070;2023-02-15T06:40:30;102043.88;;;-0.47;84.56
77333;BME280;66408;51.326;12.070;2023-02-15T06:42:56;102044.81;;;-0.54;85.14
77333;BME280;66408;51.326;12.070;2023-02-15T06:45:23;102042.16;;;-0.54;85.06
77333;BME280;66408;51.326;12.070;2023-02-15T06:47:49;102035.44;;;-0.50;85.19
77333;BME280;66408;51.326;12.070;2023-02-15T06:50:19;102040.56;;;-0.49;85.13
77333;BME280;66408;51.326;12.070;2023-02-15T06:52:45;102030.31;;;-0.45;85.10
77333;BME280;66408;51.326;12.070;2023-02-15T06:55:11;102031.16;;;-0.45;85.32
77333;BME280;66408;51.326;12.070;2023-02-15T06:57:38;102026.31;;;-0.34;85.44
77333;BME280;66408;51.326;12.070;2023-02-15T07:00:05;102029.41;;;-0.38;85.33
77333;BME280;66408;51.326;12.070;2023-02-15T07:02:34;102030.31;;;-0.45;85.38
77333;BME280;66408;51.326;12.070;2023-02-15T07:05:01;102029.03;;;-0.49;85.69
77333;BME280;66408;51.326;12.070;2023-02-15T07:07:28;102023.50;;;-0.48;85.54
77333;BME280;66408;51.326;12.070;2023-02-15T07:09:54;102020.47;;;-0.45;85.78
77333;BME280;66408;51.326;12.070;2023-02-15T07:12:20;102022.59;;;-0.40;85.53
77333;BME280;66408;51.326;12.070;2023-02-15T07:15:06;102020.16;;;-0.35;85.42
77333;BME280;66408;51.326;12.070;2023-02-15T07:17:33;102017.56;;;-0.28;85.24
77333;BME280;66408;51.326;12.070;2023-02-15T07:20:07;102015.25;;;-0.31;85.05
77333;BME280;66408;51.326;12.070;2023-02-15T07:22:34;102021.75;;;-0.41;85.35
77333;BME280;66408;51.326;12.070;2023-02-15T07:25:03;102012.63;;;-0.46;85.34
77333;BME280;66408;51.326;12.070;2023-02-15T07:27:30;102013.00;;;-0.49;85.90
77333;BME280;66408;51.326;12.070;2023-02-15T07:29:57;102013.56;;;-0.39;85.70
77333;BME280;66408;51.326;12.070;2023-02-15T07:32:27;102009.28;;;-0.33;85.40
77333;BME280;66408;51.326;12.070;2023-02-15T07:34:54;102001.97;;;-0.25;84.86
77333;BME280;66408;51.326;12.070;2023-02-15T07:37:20;102004.00;;;-0.27;85.11
77333;BME280;66408;51.326;12.070;2023-02-15T07:39:47;102005.03;;;-0.28;84.84
77333;BME280;66408;51.326;12.070;2023-02-15T07:42:13;101997.50;;;-0.18;84.77
77333;BME280;66408;51.326;12.070;2023-02-15T07:44:40;101998.38;;;-0.11;84.36
77333;BME280;66408;51.326;12.070;2023-02-15T07:47:06;101995.78;;;-0.04;84.14
77333;BME280;66408;51.326;12.070;2023-02-15T07:49:33;101986.38;;;0.00;84.38
77333;BME280;66408;51.326;12.070;2023-02-15T07:52:01;101990.63;;;-0.06;84.20
77333;BME280;66408;51.326;12.070;2023-02-15T07:54:28;101990.47;;;0.03;84.13
77333;BME280;66408;51.326;12.070;2023-02-15T07:56:54;101989.28;;;0.05;84.07
77333;BME280;66408;51.326;12.070;2023-02-15T07:59:21;101984.00;;;0.12;84.04
77333;BME280;66408;51.326;12.070;2023-02-15T08:01:47;101985.63;;;0.13;83.65
77333;BME280;66408;51.326;12.070;2023-02-15T08:04:14;101981.94;;;0.14;84.20
77333;BME280;66408;51.326;12.070;2023-02-15T08:06:40;101983.03;;;0.26;83.71
77333;BME280;66408;51.326;12.070;2023-02-15T08:09:08;101976.13;;;0.38;83.39
77333;BME280;66408;51.326;12.070;2023-02-15T08:11:36;101978.47;;;0.48;83.23
77333;BME280;66408;51.326;12.070;2023-02-15T08:16:36;101976.97;;;1.21;81.95
77333;BME280;66408;51.326;12.070;2023-02-15T08:19:09;101983.03;;;1.56;80.08
77333;BME280;66408;51.326;12.070;2023-02-15T08:21:39;101987.63;;;2.01;78.94
77333;BME280;66408;51.326;12.070;2023-02-15T08:24:07;101985.31;;;2.44;77.76
77333;BME280;66408;51.326;12.070;2023-02-15T08:26:34;101983.63;;;2.70;76.95
77333;BME280;66408;51.326;12.070;2023-02-15T08:29:01;101978.34;;;3.01;76.12
77333;BME280;66408;51.326;12.070;2023-02-15T08:31:28;101975.94;;;3.24;75.85
77333;BME280;66408;51.326;12.070;2023-02-15T08:33:56;101963.81;;;3.53;75.13
77333;BME280;66408;51.326;12.070;2023-02-15T08:36:25;101959.78;;;3.94;73.48
77333;BME280;66408;51.326;12.070;2023-02-15T08:38:53;101958.50;;;3.96;71.53
77333;BME280;66408;51.326;12.070;2023-02-15T08:41:24;101947.38;;;4.18;72.33
77333;BME280;66408;51.326;12.070;2023-02-15T08:43:53;101940.25;;;4.23;71.49
77333;BME280;66408;51.326;12.070;2023-02-15T08:46:21;101952.06;;;3.97;71.96
77333;BME280;66408;51.326;12.070;2023-02-15T08:48:48;101942.84;;;3.87;72.31
77333;BME280;66408;51.326;12.070;2023-02-15T08:51:17;101943.28;;;4.09;72.79
77333;BME280;66408;51.326;12.070;2023-02-15T08:53:49;101941.81;;;4.13;71.14
77333;BME280;66408;51.326;12.070;2023-02-15T08:56:18;101942.69;;;4.31;71.16
77333;BME280;66408;51.326;12.070;2023-02-15T08:58:45;101947.69;;;4.46;71.24
77333;BME280;66408;51.326;12.070;2023-02-15T09:01:17;101934.38;;;4.88;71.60
77333;BME280;66408;51.326;12.070;2023-02-15T09:03:49;101945.19;;;5.18;68.85
77333;BME280;66408;51.326;12.070;2023-02-15T09:06:16;101940.84;;;5.58;68.33
77333;BME280;66408;51.326;12.070;2023-02-15T09:08:43;101938.16;;;5.58;68.03
77333;BME280;66408;51.326;12.070;2023-02-15T09:11:13;101937.03;;;5.77;66.73
77333;BME280;66408;51.326;12.070;2023-02-15T09:13:39;101923.72;;;6.29;66.35
77333;BME280;66408;51.326;12.070;2023-02-15T09:16:08;101929.00;;;6.12;64.85
77333;BME280;66408;51.326;12.070;2023-02-15T09:18:38;101931.88;;;5.88;66.24
77333;BME280;66408;51.326;12.070;2023-02-15T09:21:09;101928.13;;;5.77;67.12
77333;BME280;66408;51.326;12.070;2023-02-15T09:23:36;101931.47;;;5.91;67.08
77333;BME280;66408;51.326;12.070;2023-02-15T09:26:11;101929.94;;;6.30;66.16
77333;BME280;66408;51.326;12.070;2023-02-15T09:28:38;101930.78;;;6.82;65.14
77333;BME280;66408;51.326;12.070;2023-02-15T09:31:13;101931.59;;;7.51;64.47
77333;BME280;66408;51.326;12.070;2023-02-15T09:33:45;101931.03;;;7.82;62.00
77333;BME280;66408;51.326;12.070;2023-02-15T09:36:20;101926.84;;;8.08;60.96
77333;BME280;66408;51.326;12.070;2023-02-15T09:38:53;101932.22;;;8.42;60.25
77333;BME280;66408;51.326;12.070;2023-02-15T09:44:01;101928.69;;;8.41;58.96
77333;BME280;66408;51.326;12.070;2023-02-15T09:52:13;101926.63;;;8.48;59.49
77333;BME280;66408;51.326;12.070;2023-02-15T09:57:40;101920.38;;;8.64;58.59
77333;BME280;66408;51.326;12.070;2023-02-15T10:00:24;101921.75;;;8.89;59.25
77333;BME280;66408;51.326;12.070;2023-02-15T10:26:22;101911.97;;;11.15;52.09
77333;BME280;66408;51.326;12.070;2023-02-15T10:28:57;101901.41;;;11.39;51.47
77333;BME280;66408;51.326;12.070;2023-02-15T10:34:19;101892.41;;;12.30;50.24
77333;BME280;66408;51.326;12.070;2023-02-15T10:40:23;101882.09;;;12.86;48.90
77333;BME280;66408;51.326;12.070;2023-02-15T10:51:12;101871.38;;;14.78;43.96
77333;BME280;66408;51.326;12.070;2023-02-15T11:05:25;101870.28;;;15.35;42.34
77333;BME280;66408;51.326;12.070;2023-02-15T11:07:57;101858.06;;;15.09;42.06
77333;BME280;66408;51.326;12.070;2023-02-15T11:10:39;101853.72;;;13.94;44.71
77333;BME280;66408;51.326;12.070;2023-02-15T11:13:28;101851.63;;;13.13;47.08
77333;BME280;66408;51.326;12.070;2023-02-15T11:16:08;101850.25;;;11.86;48.89
77333;BME280;66408;51.326;12.070;2023-02-15T11:18:39;101846.94;;;11.29;50.96
77333;BME280;66408;51.326;12.070;2023-02-15T11:21:13;101844.59;;;10.55;52.74
77333;BME280;66408;51.326;12.070;2023-02-15T11:23:47;101850.63;;;10.72;53.67
77333;BME280;66408;51.326;12.070;2023-02-15T11:26:17;101848.13;;;10.50;53.56
77333;BME280;66408;51.326;12.070;2023-02-15T11:28:52;101846.53;;;10.69;53.34
77333;BME280;66408;51.326;12.070;2023-02-15T11:31:24;101846.97;;;10.36;53.32
77333;BME280;66408;51.326;12.070;2023-02-15T11:34:01;101842.19;;;10.11;54.64
77333;BME280;66408;51.326;12.070;2023-02-15T11:36:34;101839.06;;;10.39;54.91
77333;BME280;66408;51.326;12.070;2023-02-15T11:39:16;101827.53;;;10.79;52.92
77333;BME280;66408;51.326;12.070;2023-02-15T11:41:50;101823.50;;;11.07;51.52
77333;BME280;66408;51.326;12.070;2023-02-15T11:44:32;101821.56;;;10.88;50.97
77333;BME280;66408;51.326;12.070;2023-02-15T11:46:59;101816.97;;;11.29;50.64
77333;BME280;66408;51.326;12.070;2023-02-15T11:49:32;101814.53;;;11.32;51.85
77333;BME280;66408;51.326;12.070;2023-02-15T11:52:10;101817.78;;;11.65;51.27
77333;BME280;66408;51.326;12.070;2023-02-15T11:54:42;101809.91;;;11.73;50.41
77333;BME280;66408;51.326;12.070;2023-02-15T11:57:36;101806.03;;;12.10;49.49
77333;BME280;66408;51.326;12.070;2023-02-15T12:02:54;101793.97;;;12.75;48.12
77333;BME280;66408;51.326;12.070;2023-02-15T12:05:23;101795.91;;;13.14;47.95
77333;BME280;66408;51.326;12.070;2023-02-15T12:07:55;101793.38;;;13.27;47.99
77333;BME280;66408;51.326;12.070;2023-02-15T12:10:26;101788.53;;;13.19;47.34
77333;BME280;66408;51.326;12.070;2023-02-15T12:13:18;101792.47;;;13.66;46.73
77333;BME280;66408;51.326;12.070;2023-02-15T12:15:47;101783.63;;;13.11;46.59
77333;BME280;66408;51.326;12.070;2023-02-15T12:18:39;101789.50;;;12.45;48.63
77333;BME280;66408;51.326;12.070;2023-02-15T12:21:09;101781.06;;;12.42;49.00
77333;BME280;66408;51.326;12.070;2023-02-15T12:23:50;101781.13;;;12.32;49.57
77333;BME280;66408;51.326;12.070;2023-02-15T12:26:33;101781.13;;;12.27;49.02
77333;BME280;66408;51.326;12.070;2023-02-15T12:29:27;101775.84;;;12.50;50.73
77333;BME280;66408;51.326;12.070;2023-02-15T12:31:52;101780.94;;;12.67;47.84
77333;BME280;66408;51.326;12.070;2023-02-15T12:34:27;101768.28;;;12.81;47.41
77333;BME280;66408;51.326;12.070;2023-02-15T12:37:00;101770.34;;;13.00;47.34
77333;BME280;66408;51.326;12.070;2023-02-15T12:39:30;101765.84;;;12.80;47.19
77333;BME280;66408;51.326;12.070;2023-02-15T12:42:16;101763.53;;;11.94;46.98
77333;BME280;66408;51.326;12.070;2023-02-15T12:45:25;101758.97;;;11.53;49.10
77333;BME280;66408;51.326;12.070;2023-02-15T12:48:16;101754.56;;;11.68;49.26
77333;BME280;66408;51.326;12.070;2023-02-15T12:51:07;101749.41;;;11.71;49.23
77333;BME280;66408;51.326;12.070;2023-02-15T12:53:35;101753.22;;;11.75;48.89
77333;BME280;66408;51.326;12.070;2023-02-15T12:56:08;101735.72;;;11.97;47.62
77333;BME280;66408;51.326;12.070;2023-02-15T12:58:41;101725.31;;;12.09;48.06
77333;BME280;66408;51.326;12.070;2023-02-15T13:03:35;101741.50;;;11.70;49.23
77333;BME280;66408;51.326;12.070;2023-02-15T13:06:04;101731.59;;;12.09;49.38
77333;BME280;66408;51.326;12.070;2023-02-15T13:08:37;101738.44;;;12.51;47.94
77333;BME280;66408;51.326;12.070;2023-02-15T13:11:09;101725.25;;;12.68;46.52
77333;BME280;66408;51.326;12.070;2023-02-15T13:13:58;101722.41;;;12.44;45.70
77333;BME280;66408;51.326;12.070;2023-02-15T13:16:35;101727.41;;;12.27;46.73
77333;BME280;66408;51.326;12.070;2023-02-15T13:19:07;101727.56;;;11.97;47.19
77333;BME280;66408;51.326;12.070;2023-02-15T13:21:44;101724.31;;;11.84;47.45
77333;BME280;66408;51.326;12.070;2023-02-15T13:24:47;101718.59;;;11.81;47.68
77333;BME280;66408;51.326;12.070;2023-02-15T13:27:20;101715.84;;;11.91;48.32
77333;BME280;66408;51.326;12.070;2023-02-15T13:29:53;101711.47;;;11.90;49.33
77333;BME280;66408;51.326;12.070;2023-02-15T13:32:30;101712.03;;;11.92;48.96
77333;BME280;66408;51.326;12.070;2023-02-15T13:35:00;101708.47;;;11.92;48.93
77333;BME280;66408;51.326;12.070;2023-02-15T13:43:10;101704.31;;;12.09;50.06
77333;BME280;66408;51.326;12.070;2023-02-15T13:46:06;101714.53;;;12.38;48.58
77333;BME280;66408;51.326;12.070;2023-02-15T13:51:56;101709.13;;;12.33;47.45
77333;BME280;66408;51.326;12.070;2023-02-15T13:57:34;101697.59;;;12.41;47.77
77333;BME280;66408;51.326;12.070;2023-02-15T14:06:00;101694.56;;;11.98;49.23
77333;BME280;66408;51.326;12.070;2023-02-15T14:08:50;101693.44;;;12.04;47.33
77333;BME280;66408;51.326;12.070;2023-02-15T14:19:51;101681.56;;;12.29;47.88
77333;BME280;66408;51.326;12.070;2023-02-15T14:22:29;101686.47;;;12.32;47.61
77333;BME280;66408;51.326;12.070;2023-02-15T14:30:37;101688.16;;;12.62;47.41
77333;BME280;66408;51.326;12.070;2023-02-15T14:33:07;101679.97;;;12.62;47.39
77333;BME280;66408;51.326;12.070;2023-02-15T14:35:35;101677.50;;;12.66;47.84
77333;BME280;66408;51.326;12.070;2023-02-15T14:40:51;101677.47;;;12.71;48.66
77333;BME280;66408;51.326;12.070;2023-02-15T14:44:00;101673.97;;;12.65;48.58
77333;BME280;66408;51.326;12.070;2023-02-15T14:46:33;101669.69;;;12.54;47.99
77333;BME280;66408;51.326;12.070;2023-02-15T14:56:44;101655.78;;;12.11;48.91
77333;BME280;66408;51.326;12.070;2023-02-15T15:01:38;101657.00;;;11.80;49.72
77333;BME280;66408;51.326;12.070;2023-02-15T15:04:09;101657.06;;;11.60;51.86
77333;BME280;66408;51.326;12.070;2023-02-15T15:06:40;101664.75;;;11.42;51.21
77333;BME280;66408;51.326;12.070;2023-02-15T15:09:20;101653.34;;;11.35;51.80
77333;BME280;66408;51.326;12.070;2023-02-15T15:11:50;101652.78;;;11.33;51.29
77333;BME280;66408;51.326;12.070;2023-02-15T15:17:00;101653.09;;;11.16;51.65
77333;BME280;66408;51.326;12.070;2023-02-15T15:22:18;101648.22;;;10.93;53.13
77333;BME280;66408;51.326;12.070;2023-02-15T15:24:47;101651.22;;;10.87;53.45
77333;BME280;66408;51.326;12.070;2023-02-15T15:27:37;101644.41;;;10.79;53.76
77333;BME280;66408;51.326;12.070;2023-02-15T15:35:55;101644.72;;;10.62;55.78